Time;durP1;ratioP1;P1;durP2;ratioP2;P2;SDS_P1;SDS_P2;PMS_P1;PMS_P2;Temp;Humidity;BMP_temperature;BMP_pressure;BME280_temperature;BME280_humidity;BME280_pressure;Samples;Min_cycle;Max_cycle;Signal;HPM_P1;HPM_P2
2022/02/22 00:00:35;;;;;;;5.93;1.87;;;;;;;;;;4559601;28;20107;-59
2022/02/22 00:02:47;;;;;;;6.87;2.10;;;;;;;;;;4557205;28;20120;-58
2022/02/22 00:04:58;;;;;;;5.30;1.90;;;;;;;;;;4557930;28;20654;-59
2022/02/22 00:07:08;;;;;;;5.37;1.80;;;;;;;;;;4558782;28;20037;-59
2022/02/22 00:09:18;;;;;;;7.00;1.67;;;;;;;;;;4544283;28;20025;-59
2022/02/22 00:11:29;;;;;;;7.27;2.07;;;;;;;;;;4560720;28;20584;-59
2022/02/22 00:13:39;;;;;;;7.13;2.27;;;;;;;;;;4560551;28;20115;-59
2022/02/22 00:15:50;;;;;;;6.50;1.97;;;;;;;;;;4561320;28;20031;-59
2022/02/22 00:18:02;;;;;;;8.53;2.00;;;;;;;;;;4560660;27;20036;-59
2022/02/22 00:20:13;;;;;;;;;;;;;;;;;;4559105;28;20087;-59
2022/02/22 00:22:23;;;;;;;8.90;2.50;;;;;;;;;;4560040;28;19912;-59
2022/02/22 00:24:34;;;;;;;7.00;2.10;;;;;;;;;;4559575;27;28091;-59
2022/02/22 00:26:45;;;;;;;6.03;2.13;;;;;;;;;;4558688;28;20037;-59
2022/02/22 00:28:55;;;;;;;7.40;2.10;;;;;;;;;;4559219;28;20024;-59
2022/02/22 00:31:07;;;;;;;;;;;;;;;;;;4557053;28;21240;-59
2022/02/22 00:33:17;;;;;;;6.10;1.98;;;;;;;;;;4556953;27;22414;-59
2022/02/22 00:35:27;;;;;;;6.13;1.90;;;;;;;;;;4559046;28;20120;-59
2022/02/22 00:37:38;;;;;;;7.10;2.40;;;;;;;;;;4559025;28;20115;-59
2022/02/22 00:39:49;;;;;;;6.95;2.15;;;;;;;;;;4557834;28;20055;-59
2022/02/22 00:41:59;;;;;;;7.60;2.50;;;;;;;;;;4560112;28;20033;-59
2022/02/22 00:44:10;;;;;;;9.60;2.53;;;;;;;;;;4559208;28;20409;-59
2022/02/22 00:46:20;;;;;;;5.93;1.67;;;;;;;;;;4558305;28;20029;-59
2022/02/22 00:48:31;;;;;;;7.13;2.33;;;;;;;;;;4558501;28;37189;-59
2022/02/22 00:50:41;;;;;;;6.50;2.27;;;;;;;;;;4556469;28;20104;-59
2022/02/22 00:52:52;;;;;;;7.40;2.30;;;;;;;;;;4557761;28;20067;-59
2022/02/22 00:55:03;;;;;;;5.83;2.00;;;;;;;;;;4560257;28;20039;-59
2022/02/22 00:57:13;;;;;;;8.90;2.40;;;;;;;;;;4557036;28;20116;-59
2022/02/22 00:59:23;;;;;;;8.97;2.33;;;;;;;;;;4558781;28;39381;-59
2022/02/22 01:01:34;;;;;;;8.63;2.30;;;;;;;;;;4558052;28;20037;-59
2022/02/22 01:03:45;;;;;;;7.63;2.33;;;;;;;;;;4556627;28;20079;-59
2022/02/22 01:05:55;;;;;;;6.35;1.95;;;;;;;;;;4558135;28;20033;-59
2022/02/22 01:08:06;;;;;;;8.07;2.20;;;;;;;;;;4558310;28;29770;-59
2022/02/22 01:10:16;;;;;;;6.27;2.30;;;;;;;;;;4559455;28;20492;-58
2022/02/22 01:12:27;;;;;;;7.00;2.10;;;;;;;;;;4560306;28;20027;-59
2022/02/22 01:14:39;;;;;;;6.90;2.30;;;;;;;;;;4556652;28;20838;-59
2022/02/22 01:16:49;;;;;;;5.03;1.88;;;;;;;;;;4562357;28;20032;-59
2022/02/22 01:19:00;;;;;;;7.97;2.20;;;;;;;;;;4557810;27;40057;-59
2022/02/22 01:21:10;;;;;;;7.27;2.27;;;;;;;;;;4555248;28;20041;-59
2022/02/22 01:23:21;;;;;;;7.23;1.93;;;;;;;;;;4569678;27;27984;-59
2022/02/22 01:25:31;;;;;;;7.43;2.03;;;;;;;;;;4558502;28;20037;-59
2022/02/22 01:27:41;;;;;;;8.03;2.33;;;;;;;;;;4558794;28;28793;-58
2022/02/22 01:29:52;;;;;;;6.87;2.13;;;;;;;;;;4560395;28;20036;-59
2022/02/22 01:32:03;;;;;;;7.57;2.17;;;;;;;;;;4558718;28;34842;-59
2022/02/22 01:34:13;;;;;;;7.40;2.35;;;;;;;;;;4555860;27;20031;-59
2022/02/22 01:36:27;;;;;;;6.57;2.30;;;;;;;;;;4557555;28;20417;-58
2022/02/22 01:38:37;;;;;;;8.35;2.90;;;;;;;;;;4556897;28;20036;-58
2022/02/22 01:40:49;;;;;;;6.27;1.83;;;;;;;;;;4557093;28;20079;-59
2022/02/22 01:42:59;;;;;;;;;;;;;;;;;;4541993;28;20044;-59
2022/02/22 01:45:10;;;;;;;5.47;1.88;;;;;;;;;;4559595;27;19920;-59
2022/02/22 01:47:20;;;;;;;7.00;2.07;;;;;;;;;;4558106;28;20400;-59
2022/02/22 01:49:32;;;;;;;7.33;2.10;;;;;;;;;;4557916;28;20117;-59
2022/02/22 01:51:42;;;;;;;7.03;1.90;;;;;;;;;;4557091;28;20603;-59
2022/02/22 01:53:52;;;;;;;6.03;1.93;;;;;;;;;;4558462;28;20064;-59
2022/02/22 01:56:04;;;;;;;8.97;2.40;;;;;;;;;;4557596;28;33122;-59
2022/02/22 01:58:14;;;;;;;5.68;1.85;;;;;;;;;;4556996;28;20615;-59
2022/02/22 02:00:27;;;;;;;4.73;1.83;;;;;;;;;;4558243;28;27910;-59
2022/02/22 02:02:37;;;;;;;6.15;2.05;;;;;;;;;;4560304;28;20194;-59
2022/02/22 02:04:47;;;;;;;6.20;1.90;;;;;;;;;;4558556;28;20129;-59
2022/02/22 02:06:59;;;;;;;6.17;1.90;;;;;;;;;;4560622;28;20060;-59
2022/02/22 02:09:10;;;;;;;6.57;1.77;;;;;;;;;;4560151;28;20068;-59
2022/02/22 02:11:20;;;;;;;6.72;1.83;;;;;;;;;;4561326;28;20117;-59
2022/02/22 02:13:31;;;;;;;7.10;1.80;;;;;;;;;;4542375;28;40787;-59
2022/02/22 02:15:41;;;;;;;7.70;2.33;;;;;;;;;;4560412;28;20518;-59
2022/02/22 02:17:52;;;;;;;5.07;1.80;;;;;;;;;;4560348;27;42127;-59
2022/02/22 02:20:04;;;;;;;4.93;1.73;;;;;;;;;;4560499;28;20129;-59
2022/02/22 02:22:14;;;;;;;8.85;2.42;;;;;;;;;;4546213;28;20083;-59
2022/02/22 02:24:26;;;;;;;6.60;2.20;;;;;;;;;;4560850;28;20021;-59
2022/02/22 02:26:37;;;;;;;6.50;1.88;;;;;;;;;;4560627;28;20048;-59
2022/02/22 02:28:47;;;;;;;8.10;2.47;;;;;;;;;;4560169;28;20125;-59
2022/02/22 02:30:57;;;;;;;5.40;1.93;;;;;;;;;;4561174;28;20097;-58
2022/02/22 02:33:08;;;;;;;8.30;2.40;;;;;;;;;;4561815;28;32855;-58
2022/02/22 02:35:18;;;;;;;7.27;2.10;;;;;;;;;;4559883;28;20032;-59
2022/02/22 02:37:29;;;;;;;6.73;1.97;;;;;;;;;;4559026;28;20056;-59
2022/02/22 02:39:40;;;;;;;6.73;2.10;;;;;;;;;;4560036;28;20365;-59
2022/02/22 02:41:50;;;;;;;7.33;2.33;;;;;;;;;;4561512;28;20036;-59
2022/02/22 02:44:07;;;;;;;7.40;2.10;;;;;;;;;;4559814;28;20028;-59
2022/02/22 02:46:17;;;;;;;6.70;2.00;;;;;;;;;;4560009;28;20090;-59
2022/02/22 02:48:27;;;;;;;6.27;1.80;;;;;;;;;;4559695;27;25739;-59
2022/02/22 02:50:38;;;;;;;7.83;2.53;;;;;;;;;;4560532;28;20043;-59
2022/02/22 02:52:48;;;;;;;5.80;1.93;;;;;;;;;;4559340;28;20032;-59
2022/02/22 02:54:59;;;;;;;5.07;2.00;;;;;;;;;;4562625;28;21529;-59
2022/02/22 02:57:09;;;;;;;8.27;2.27;;;;;;;;;;4558491;28;20028;-59
2022/02/22 02:59:20;;;;;;;7.40;2.00;;;;;;;;;;4560668;28;20595;-59
2022/02/22 03:01:31;;;;;;;6.57;2.60;;;;;;;;;;4558951;28;20039;-59
2022/02/22 03:03:41;;;;;;;;;;;;;;;;;;4560611;28;20032;-59
2022/02/22 03:05:52;;;;;;;6.18;1.98;;;;;;;;;;4561086;28;19920;-59
2022/02/22 03:08:02;;;;;;;6.47;2.07;;;;;;;;;;4558941;28;33986;-59
2022/02/22 03:10:13;;;;;;;8.67;2.40;;;;;;;;;;4563156;28;20033;-59
2022/02/22 03:12:23;;;;;;;6.53;2.10;;;;;;;;;;4557747;28;25625;-59
2022/02/22 03:14:33;;;;;;;6.83;2.20;;;;;;;;;;4559664;28;20127;-59
2022/02/22 03:16:44;;;;;;;6.30;2.07;;;;;;;;;;4561373;28;20401;-59
2022/02/22 03:18:55;;;;;;;7.33;2.27;;;;;;;;;;4557733;28;20108;-59
2022/02/22 03:21:05;;;;;;;8.77;2.13;;;;;;;;;;4559510;28;20032;-59
2022/02/22 03:23:19;;;;;;;9.07;2.03;;;;;;;;;;4558654;28;20041;-59
2022/02/22 03:25:29;;;;;;;8.90;2.17;;;;;;;;;;4557994;28;20047;-59
2022/02/22 03:27:40;;;;;;;5.97;2.20;;;;;;;;;;4574230;27;20449;-59
2022/02/22 03:29:50;;;;;;;5.97;1.83;;;;;;;;;;4560507;28;20071;-59
2022/02/22 03:32:00;;;;;;;6.30;1.90;;;;;;;;;;4559237;28;35928;-59
2022/02/22 03:34:11;;;;;;;5.77;1.93;;;;;;;;;;4561656;28;30124;-59
2022/02/22 03:36:21;;;;;;;5.83;1.97;;;;;;;;;;4556420;28;41525;-59
2022/02/22 03:38:32;;;;;;;6.60;1.97;;;;;;;;;;4557932;28;20047;-59
2022/02/22 03:40:42;;;;;;;6.40;2.17;;;;;;;;;;4559212;28;20163;-58
2022/02/22 03:42:53;;;;;;;6.10;1.97;;;;;;;;;;4560304;28;20378;-59
2022/02/22 03:45:04;;;;;;;7.70;2.17;;;;;;;;;;4559748;28;20024;-58
2022/02/22 03:47:14;;;;;;;7.90;2.10;;;;;;;;;;4558311;28;20030;-59
2022/02/22 03:49:25;;;;;;;7.30;1.93;;;;;;;;;;4557938;28;20099;-60
2022/02/22 03:51:35;;;;;;;3.75;1.80;;;;;;;;;;4561247;28;20619;-59
2022/02/22 03:53:46;;;;;;;5.03;1.43;;;;;;;;;;4557218;28;20356;-59
2022/02/22 03:55:56;;;;;;;4.47;1.43;;;;;;;;;;4559045;28;26324;-59
2022/02/22 03:58:07;;;;;;;5.37;1.13;;;;;;;;;;4557320;28;20032;-59
2022/02/22 04:00:20;;;;;;;3.10;1.20;;;;;;;;;;4559073;28;20480;-60
2022/02/22 04:02:30;;;;;;;3.83;1.10;;;;;;;;;;4558733;28;20043;-59
2022/02/22 04:04:41;;;;;;;5.37;1.57;;;;;;;;;;4556433;28;20034;-59
2022/02/22 04:06:51;;;;;;;1.80;0.90;;;;;;;;;;4559771;28;20046;-59
2022/02/22 04:09:02;;;;;;;4.20;1.10;;;;;;;;;;4545411;28;20428;-59
2022/02/22 04:11:12;;;;;;;3.03;1.00;;;;;;;;;;4560268;28;20033;-59
2022/02/22 04:13:23;;;;;;;3.83;0.93;;;;;;;;;;4561533;28;20500;-59
2022/02/22 04:15:33;;;;;;;2.50;0.80;;;;;;;;;;4559718;28;20070;-59
2022/02/22 04:17:44;;;;;;;3.13;0.97;;;;;;;;;;4557167;27;20103;-60
2022/02/22 04:19:54;;;;;;;2.43;0.90;;;;;;;;;;4557747;28;31253;-58
2022/02/22 04:22:04;;;;;;;2.23;0.90;;;;;;;;;;4557978;28;20036;-59
2022/02/22 04:24:15;;;;;;;1.40;0.67;;;;;;;;;;4557543;28;20032;-58
2022/02/22 04:26:25;;;;;;;2.53;0.90;;;;;;;;;;4558481;28;20523;-59
2022/02/22 04:28:36;;;;;;;1.93;0.67;;;;;;;;;;4558667;28;22240;-59
2022/02/22 04:30:46;;;;;;;1.83;0.63;;;;;;;;;;4558516;28;24305;-58
2022/02/22 04:32:56;;;;;;;1.83;0.50;;;;;;;;;;4560743;28;20408;-59
2022/02/22 04:35:07;;;;;;;2.40;0.73;;;;;;;;;;4560856;28;20552;-59
2022/02/22 04:37:18;;;;;;;1.40;0.60;;;;;;;;;;4558670;28;20940;-59
2022/02/22 04:39:28;;;;;;;1.77;0.90;;;;;;;;;;4559575;28;20278;-59
2022/02/22 04:41:39;;;;;;;1.83;0.80;;;;;;;;;;4559260;28;20036;-59
2022/02/22 04:43:49;;;;;;;2.33;0.70;;;;;;;;;;4560583;28;20032;-59
2022/02/22 04:46:00;;;;;;;2.43;1.00;;;;;;;;;;4561040;28;20032;-59
2022/02/22 04:48:10;;;;;;;2.53;0.93;;;;;;;;;;4558335;27;38568;-59
2022/02/22 04:50:21;;;;;;;3.10;1.10;;;;;;;;;;4558146;28;20029;-58
2022/02/22 04:52:31;;;;;;;3.75;1.10;;;;;;;;;;4556556;28;20087;-59
2022/02/22 04:54:42;;;;;;;3.30;1.20;;;;;;;;;;4559571;28;20072;-59
2022/02/22 04:56:52;;;;;;;3.77;1.23;;;;;;;;;;4559059;28;20025;-59
2022/02/22 04:59:03;;;;;;;4.33;1.43;;;;;;;;;;4559346;28;34698;-58
2022/02/22 05:01:13;;;;;;;4.07;1.15;;;;;;;;;;4557959;28;20044;-58
2022/02/22 05:03:24;;;;;;;3.07;1.00;;;;;;;;;;4557105;28;20042;-58
2022/02/22 05:05:34;;;;;;;3.23;1.20;;;;;;;;;;4558026;28;20040;-59
2022/02/22 05:07:45;;;;;;;6.40;1.90;;;;;;;;;;4557879;28;20032;-58
2022/02/22 05:09:55;;;;;;;4.37;1.43;;;;;;;;;;4558740;28;20518;-58
2022/02/22 05:12:06;;;;;;;4.27;1.37;;;;;;;;;;4557421;28;20051;-58
2022/02/22 05:14:16;;;;;;;3.83;1.43;;;;;;;;;;4555968;28;20049;-59
2022/02/22 05:16:27;;;;;;;6.90;1.90;;;;;;;;;;4558464;28;31786;-59
2022/02/22 05:18:37;;;;;;;6.60;1.70;;;;;;;;;;4558258;28;31148;-59
2022/02/22 05:20:57;;;;;;;6.13;1.90;;;;;;;;;;4558138;28;20047;-59
2022/02/22 05:23:08;;;;;;;6.47;2.08;;;;;;;;;;4556181;28;20033;-59
2022/02/22 05:25:18;;;;;;;5.68;1.95;;;;;;;;;;4558424;28;25635;-59
2022/02/22 05:27:29;;;;;;;4.93;1.97;;;;;;;;;;4557859;28;20028;-59
2022/02/22 05:29:39;;;;;;;5.87;2.40;;;;;;;;;;4561179;28;20102;-59
2022/02/22 05:31:49;;;;;;;8.13;2.80;;;;;;;;;;4559190;28;20052;-59
2022/02/22 05:34:00;;;;;;;7.23;2.50;;;;;;;;;;4556840;28;26736;-59
2022/02/22 05:36:11;;;;;;;6.60;2.60;;;;;;;;;;4556040;28;20045;-59
2022/02/22 05:38:22;;;;;;;7.17;2.97;;;;;;;;;;4555271;28;20059;-59
2022/02/22 05:40:32;;;;;;;7.13;2.43;;;;;;;;;;4557905;27;20088;-58
2022/02/22 05:42:43;;;;;;;8.60;3.47;;;;;;;;;;4558092;28;20032;-59
2022/02/22 05:44:53;;;;;;;7.77;2.23;;;;;;;;;;4558475;28;20033;-59
2022/02/22 05:47:04;;;;;;;8.63;2.20;;;;;;;;;;4556517;28;20044;-59
2022/02/22 05:49:14;;;;;;;8.07;2.23;;;;;;;;;;4557958;28;20127;-59
2022/02/22 05:51:25;;;;;;;6.57;2.20;;;;;;;;;;4559852;28;38019;-59
2022/02/22 05:53:36;;;;;;;6.27;2.03;;;;;;;;;;4557572;28;20032;-59
2022/02/22 05:55:47;;;;;;;5.38;2.17;;;;;;;;;;4557608;28;20120;-59
2022/02/22 05:57:57;;;;;;;5.90;1.87;;;;;;;;;;4556172;28;20046;-59
2022/02/22 06:00:09;;;;;;;5.20;2.10;;;;;;;;;;4558930;28;24217;-59
2022/02/22 06:02:19;;;;;;;8.27;2.17;;;;;;;;;;4560426;28;20593;-58
2022/02/22 06:04:29;;;;;;;5.63;1.80;;;;;;;;;;4557236;28;29150;-58
2022/02/22 06:06:41;;;;;;;5.97;1.90;;;;;;;;;;4551572;28;24532;-59
2022/02/22 06:08:51;;;;;;;5.80;1.80;;;;;;;;;;4554945;28;20563;-59
2022/02/22 06:11:01;;;;;;;8.90;2.47;;;;;;;;;;4556950;28;20029;-59
2022/02/22 06:13:12;;;;;;;6.13;1.83;;;;;;;;;;4557248;28;20037;-59
2022/02/22 06:15:22;;;;;;;6.07;2.20;;;;;;;;;;4558218;28;20028;-58
2022/02/22 06:17:40;;;;;;;7.90;2.30;;;;;;;;;;4556511;28;20404;-59
2022/02/22 06:19:51;;;;;;;8.18;2.47;;;;;;;;;;4557049;28;20638;-59
2022/02/22 06:22:02;;;;;;;8.50;2.40;;;;;;;;;;4559792;28;20070;-59
2022/02/22 06:24:12;;;;;;;7.17;2.23;;;;;;;;;;4560045;28;20037;-59
2022/02/22 06:26:22;;;;;;;7.13;1.93;;;;;;;;;;4558493;28;20036;-58
2022/02/22 06:28:33;;;;;;;7.43;2.07;;;;;;;;;;4556406;28;23521;-59
2022/02/22 06:30:44;;;;;;;7.17;2.00;;;;;;;;;;4556444;28;20041;-59
2022/02/22 06:32:54;;;;;;;7.03;2.37;;;;;;;;;;4556262;28;20032;-58
2022/02/22 06:35:05;;;;;;;5.77;2.13;;;;;;;;;;4557527;28;20044;-59
2022/02/22 06:37:15;;;;;;;6.28;1.90;;;;;;;;;;4558540;28;20831;-58
2022/02/22 06:39:26;;;;;;;8.67;2.37;;;;;;;;;;4556397;28;34570;-59
2022/02/22 06:41:36;;;;;;;7.37;2.17;;;;;;;;;;4553244;28;20045;-60
2022/02/22 06:43:47;;;;;;;6.73;2.20;;;;;;;;;;4556390;28;20576;-59
2022/02/22 06:45:57;;;;;;;8.47;2.10;;;;;;;;;;4556873;28;20035;-58
2022/02/22 06:48:08;;;;;;;7.73;2.40;;;;;;;;;;4560159;28;20378;-59
2022/02/22 06:50:18;;;;;;;8.70;2.30;;;;;;;;;;4561931;28;20156;-59
2022/02/22 06:52:28;;;;;;;7.87;2.10;;;;;;;;;;4558824;28;20027;-59
2022/02/22 06:54:39;;;;;;;6.67;2.33;;;;;;;;;;4561560;28;20040;-59
2022/02/22 06:56:50;;;;;;;5.17;1.67;;;;;;;;;;4559990;28;20606;-58
2022/02/22 06:59:00;;;;;;;6.90;1.90;;;;;;;;;;4560348;28;20036;-59
2022/02/22 07:01:11;;;;;;;7.80;2.00;;;;;;;;;;4559641;28;21160;-59
2022/02/22 07:03:22;;;;;;;7.27;2.57;;;;;;;;;;4557860;28;20029;-59
2022/02/22 07:05:34;;;;;;;7.75;2.38;;;;;;;;;;4560289;28;20861;-59
2022/02/22 07:07:45;;;;;;;8.15;2.30;;;;;;;;;;4558983;28;20689;-59
2022/02/22 07:09:55;;;;;;;7.70;2.33;;;;;;;;;;4559176;28;20125;-59
2022/02/22 07:12:06;;;;;;;7.63;2.37;;;;;;;;;;4559738;28;20478;-59
2022/02/22 07:14:16;;;;;;;5.90;1.90;;;;;;;;;;4559084;27;20050;-59
2022/02/22 07:16:27;;;;;;;6.93;2.27;;;;;;;;;;4557897;28;20044;-60
2022/02/22 07:18:37;;;;;;;6.83;2.20;;;;;;;;;;4558794;27;20040;-59
2022/02/22 07:20:48;;;;;;;9.23;2.67;;;;;;;;;;4562304;28;20048;-59
2022/02/22 07:22:59;;;;;;;7.20;2.30;;;;;;;;;;4558729;28;20044;-59
2022/02/22 07:25:12;;;;;;;;;;;;;;;;;;4561067;28;20036;-59
2022/02/22 07:27:22;;;;;;;7.43;2.13;;;;;;;;;;4541305;28;19917;-60
2022/02/22 07:29:33;;;;;;;6.63;1.97;;;;;;;;;;4558421;28;20501;-59
2022/02/22 07:31:44;;;;;;;7.65;1.90;;;;;;;;;;4558989;28;20170;-59
2022/02/22 07:33:54;;;;;;;4.90;1.60;;;;;;;;;;4556403;28;20039;-59
2022/02/22 07:36:05;;;;;;;7.00;2.23;;;;;;;;;;4559960;28;20064;-60
2022/02/22 07:38:16;;;;;;;7.43;2.50;;;;;;;;;;4558936;28;20122;-58
2022/02/22 07:40:26;;;;;;;7.80;2.33;;;;;;;;;;4559588;28;20231;-58
2022/02/22 07:42:37;;;;;;;6.73;2.60;;;;;;;;;;4559682;28;20528;-58
2022/02/22 07:44:47;;;;;;;6.67;2.20;;;;;;;;;;4560498;28;20844;-58
2022/02/22 07:46:58;;;;;;;8.63;2.70;;;;;;;;;;4558985;27;33214;-59
2022/02/22 07:49:10;;;;;;;10.33;2.77;;;;;;;;;;4559273;28;20035;-59
2022/02/22 07:51:20;;;;;;;9.98;2.60;;;;;;;;;;4557391;27;20882;-58
2022/02/22 07:53:31;;;;;;;6.97;2.33;;;;;;;;;;4556081;28;20032;-58
2022/02/22 07:55:41;;;;;;;7.50;2.37;;;;;;;;;;4557707;28;20072;-59
2022/02/22 07:57:52;;;;;;;7.50;2.10;;;;;;;;;;4557249;28;20139;-58
2022/02/22 08:00:03;;;;;;;8.57;2.47;;;;;;;;;;4559734;28;32237;-58
2022/02/22 08:02:14;;;;;;;7.53;2.10;;;;;;;;;;4559074;28;20119;-58
2022/02/22 08:04:26;;;;;;;7.73;2.47;;;;;;;;;;4557979;28;20036;-59
2022/02/22 08:06:37;;;;;;;7.50;2.42;;;;;;;;;;4562829;28;20028;-58
2022/02/22 08:08:47;;;;;;;7.80;2.50;;;;;;;;;;4559512;28;20595;-59
2022/02/22 08:10:58;;;;;;;6.80;2.23;;;;;;;;;;4561136;28;20041;-58
2022/02/22 08:13:08;;;;;;;8.03;2.50;;;;;;;;;;4558235;28;20083;-58
2022/02/22 08:15:19;;;;;;;5.93;2.20;;;;;;;;;;4559202;28;20082;-59
2022/02/22 08:17:29;;;;;;;8.47;2.37;;;;;;;;;;4558107;27;20036;-58
2022/02/22 08:19:40;;;;;;;7.20;3.00;;;;;;;;;;4556262;28;20044;-58
2022/02/22 08:21:50;;;;;;;6.90;2.20;;;;;;;;;;4558192;28;20042;-58
2022/02/22 08:24:01;;;;;;;10.10;2.80;;;;;;;;;;4558292;28;20473;-58
2022/02/22 08:26:11;;;;;;;7.40;2.37;;;;;;;;;;4556788;28;20043;-58
2022/02/22 08:28:21;;;;;;;7.67;2.30;;;;;;;;;;4557913;28;29249;-58
2022/02/22 08:30:33;;;;;;;5.27;2.07;;;;;;;;;;4556117;28;20528;-59
2022/02/22 08:32:44;;;;;;;6.85;2.03;;;;;;;;;;4556226;28;20170;-58
2022/02/22 08:34:54;;;;;;;8.20;2.80;;;;;;;;;;4555239;28;20201;-58
2022/02/22 08:37:05;;;;;;;6.87;2.10;;;;;;;;;;4557790;28;20020;-58
2022/02/22 08:39:15;;;;;;;8.63;2.40;;;;;;;;;;4558157;28;20036;-58
2022/02/22 08:41:26;;;;;;;7.87;2.27;;;;;;;;;;4556797;28;20040;-58
2022/02/22 08:43:37;;;;;;;7.90;2.45;;;;;;;;;;4558343;27;20474;-58
2022/02/22 08:45:48;;;;;;;7.00;2.40;;;;;;;;;;4558678;27;20044;-58
2022/02/22 08:47:58;;;;;;;6.83;2.27;;;;;;;;;;4558153;28;20047;-58
2022/02/22 08:50:09;;;;;;;6.67;2.30;;;;;;;;;;4560907;28;20135;-59
2022/02/22 08:52:19;;;;;;;7.13;2.40;;;;;;;;;;4555875;28;20040;-58
2022/02/22 08:54:30;;;;;;;6.47;2.57;;;;;;;;;;4555785;28;20040;-58
2022/02/22 08:56:40;;;;;;;7.43;2.53;;;;;;;;;;4557452;28;20809;-58
2022/02/22 08:58:52;;;;;;;8.33;2.50;;;;;;;;;;4533961;28;20041;-59
2022/02/22 09:01:03;;;;;;;9.05;2.60;;;;;;;;;;4557947;28;20135;-58
2022/02/22 09:03:14;;;;;;;6.33;2.33;;;;;;;;;;4556264;28;20579;-59
2022/02/22 09:05:25;;;;;;;7.07;2.50;;;;;;;;;;4556951;28;20247;-59
2022/02/22 09:07:35;;;;;;;8.43;2.30;;;;;;;;;;4571870;27;20024;-59
2022/02/22 09:09:46;;;;;;;6.53;1.97;;;;;;;;;;4557632;27;20032;-60
2022/02/22 09:11:56;;;;;;;6.23;2.40;;;;;;;;;;4555607;28;20035;-59
2022/02/22 09:14:07;;;;;;;6.33;2.80;;;;;;;;;;4555844;28;26387;-59
2022/02/22 09:16:17;;;;;;;7.67;2.63;;;;;;;;;;4557816;28;20043;-59
2022/02/22 09:18:27;;;;;;;8.63;2.37;;;;;;;;;;4556345;27;32227;-59
2022/02/22 09:20:38;;;;;;;7.00;2.53;;;;;;;;;;4560268;28;20039;-59
2022/02/22 09:22:49;;;;;;;7.97;2.20;;;;;;;;;;4556069;28;20029;-58
2022/02/22 09:24:59;;;;;;;6.97;1.90;;;;;;;;;;4557054;28;20181;-59
2022/02/22 09:27:10;;;;;;;5.40;1.87;;;;;;;;;;4557400;28;20239;-59
2022/02/22 09:29:20;;;;;;;6.73;2.27;;;;;;;;;;4557758;28;20027;-58
2022/02/22 09:31:31;;;;;;;6.70;2.20;;;;;;;;;;4556425;28;20043;-59
2022/02/22 09:33:41;;;;;;;7.37;2.40;;;;;;;;;;4555344;28;32794;-59
2022/02/22 09:35:51;;;;;;;8.57;2.30;;;;;;;;;;4556458;28;20051;-59
2022/02/22 09:38:02;;;;;;;7.10;2.50;;;;;;;;;;4554603;27;20021;-59
2022/02/22 09:40:14;;;;;;;7.03;2.10;;;;;;;;;;4555591;28;20059;-59
2022/02/22 09:42:25;;;;;;;;;;;;;;;;;;4560388;28;20040;-59
2022/02/22 09:44:37;;;;;;;6.68;2.40;;;;;;;;;;4561945;28;20411;-59
2022/02/22 09:46:48;;;;;;;;;;;;;;;;;;4558906;28;20063;-59
2022/02/22 09:48:58;;;;;;;9.23;2.85;;;;;;;;;;4555862;28;19955;-59
2022/02/22 09:51:09;;;;;;;6.83;2.40;;;;;;;;;;4540249;28;20045;-59
2022/02/22 09:53:19;;;;;;;9.90;3.80;;;;;;;;;;4555285;28;20114;-59
2022/02/22 09:55:30;;;;;;;7.23;2.13;;;;;;;;;;4557171;28;20043;-58
2022/02/22 09:57:40;;;;;;;7.43;2.47;;;;;;;;;;4555035;28;20033;-59
2022/02/22 09:59:50;;;;;;;7.97;2.17;;;;;;;;;;4538555;28;20505;-59
2022/02/22 10:02:01;;;;;;;7.03;2.00;;;;;;;;;;4558068;28;20029;-60
2022/02/22 10:04:12;;;;;;;6.80;2.23;;;;;;;;;;4558237;28;20086;-59
2022/02/22 10:06:23;;;;;;;5.35;1.65;;;;;;;;;;4558074;28;20447;-59
2022/02/22 10:08:38;;;;;;;7.67;2.20;;;;;;;;;;4555157;28;20127;-59
2022/02/22 10:11:04;;;;;;;7.97;2.17;;;;;;;;;;4555855;28;20243;-59
2022/02/22 10:13:20;;;;;;;7.03;2.15;;;;;;;;;;4558090;28;20029;-59
2022/02/22 10:15:38;;;;;;;8.40;2.28;;;;;;;;;;4556171;28;20055;-59
2022/02/22 10:17:51;;;;;;;5.57;1.90;;;;;;;;;;4555056;27;20143;-59
2022/02/22 10:20:03;;;;;;;6.15;2.00;;;;;;;;;;4557526;28;20894;-58
2022/02/22 10:22:13;;;;;;;7.45;2.50;;;;;;;;;;4559828;28;20131;-59
2022/02/22 10:24:26;;;;;;;6.97;1.80;;;;;;;;;;4559572;28;20421;-59
2022/02/22 10:26:37;;;;;;;5.82;1.73;;;;;;;;;;4559288;28;20032;-59
2022/02/22 10:28:47;;;;;;;6.50;1.70;;;;;;;;;;4560198;28;20042;-59
2022/02/22 10:30:58;;;;;;;5.63;1.83;;;;;;;;;;4558579;28;20043;-59
2022/02/22 10:33:13;;;;;;;6.50;1.90;;;;;;;;;;4558555;28;20115;-59
2022/02/22 10:35:32;;;;;;;6.60;2.08;;;;;;;;;;4558435;28;20028;-58
2022/02/22 10:37:43;;;;;;;6.10;1.83;;;;;;;;;;4559117;27;20111;-59
2022/02/22 10:40:02;;;;;;;6.57;2.17;;;;;;;;;;4557428;28;20435;-58
2022/02/22 10:42:13;;;;;;;4.88;1.77;;;;;;;;;;4557334;28;20082;-59
2022/02/22 10:44:29;;;;;;;3.60;1.37;;;;;;;;;;4563210;28;25617;-59
2022/02/22 10:46:45;;;;;;;3.78;1.50;;;;;;;;;;4558273;28;20043;-59
2022/02/22 10:49:00;;;;;;;5.22;2.47;;;;;;;;;;4559541;27;20040;-59
2022/02/22 10:51:13;;;;;;;7.45;1.60;;;;;;;;;;4560491;28;20110;-59
2022/02/22 10:53:34;;;;;;;3.75;1.40;;;;;;;;;;4559608;28;20033;-59
2022/02/22 10:55:45;;;;;;;4.88;1.60;;;;;;;;;;4558227;28;20044;-59
2022/02/22 10:57:55;;;;;;;;;;;;;;;;;;4560932;28;21262;-59
2022/02/22 11:00:07;;;;;;;5.03;1.40;;;;;;;;;;4559500;28;20016;-59
2022/02/22 11:02:18;;;;;;;3.17;1.10;;;;;;;;;;4558184;28;20560;-58
2022/02/22 11:04:28;;;;;;;3.92;1.58;;;;;;;;;;4559917;28;20075;-59
2022/02/22 11:06:39;;;;;;;3.83;1.40;;;;;;;;;;4557879;28;20132;-58
2022/02/22 11:08:51;;;;;;;3.00;1.40;;;;;;;;;;4558771;28;20037;-59
2022/02/22 11:11:09;;;;;;;5.10;1.40;;;;;;;;;;4557982;28;20048;-59
2022/02/22 11:13:29;;;;;;;4.75;1.58;;;;;;;;;;4559333;28;20094;-59
2022/02/22 11:15:41;;;;;;;4.75;1.55;;;;;;;;;;4557647;28;20044;-62
2022/02/22 11:17:54;;;;;;;5.05;1.50;;;;;;;;;;4558311;28;20020;-59
2022/02/22 11:20:05;;;;;;;5.07;1.40;;;;;;;;;;4558657;28;20619;-58
2022/02/22 11:22:19;;;;;;;3.90;1.50;;;;;;;;;;4559382;28;20043;-59
2022/02/22 11:24:30;;;;;;;5.57;1.33;;;;;;;;;;4559721;28;20237;-58
2022/02/22 11:26:57;;;;;;;4.97;1.90;;;;;;;;;;4558651;28;20419;-59
2022/02/22 11:29:08;;;;;;;4.07;1.38;;;;;;;;;;4547312;28;20037;-60
2022/02/22 11:31:19;;;;;;;;;;;;;;;;;;4561275;28;20021;-60
2022/02/22 11:33:37;;;;;;;4.80;1.50;;;;;;;;;;4558457;28;20273;-59
2022/02/22 11:35:57;;;;;;;5.70;1.60;;;;;;;;;;4560470;28;20082;-59
2022/02/22 11:38:09;;;;;;;3.33;1.45;;;;;;;;;;4560957;28;20032;-59
2022/02/22 11:40:32;;;;;;;2.67;1.25;;;;;;;;;;4560864;28;20723;-59
2022/02/22 11:42:42;;;;;;;4.55;1.30;;;;;;;;;;4558799;28;20029;-59
2022/02/22 11:45:19;;;;;;;4.57;1.20;;;;;;;;;;4557699;28;20040;-59
2022/02/22 11:47:31;;;;;;;2.97;1.20;;;;;;;;;;4558537;27;20608;-60
2022/02/22 11:49:50;;;;;;;3.22;1.00;;;;;;;;;;4561414;28;20024;-59
2022/02/22 11:52:09;;;;;;;3.20;1.23;;;;;;;;;;4559209;28;20753;-59
2022/02/22 11:54:25;;;;;;;4.00;1.20;;;;;;;;;;4560104;28;20178;-59
2022/02/22 11:56:36;;;;;;;3.80;1.60;;;;;;;;;;4558845;28;20029;-59
2022/02/22 11:58:47;;;;;;;5.13;2.00;;;;;;;;;;4559504;28;20492;-57
2022/02/22 12:01:04;;;;;;;4.83;1.30;;;;;;;;;;4558364;28;20091;-57
2022/02/22 12:03:15;;;;;;;5.95;1.55;;;;;;;;;;4561322;28;20033;-58
2022/02/22 12:05:38;;;;;;;5.13;1.30;;;;;;;;;;4558110;28;26235;-58
2022/02/22 12:07:59;;;;;;;4.20;2.10;;;;;;;;;;4555732;28;20040;-58
2022/02/22 12:10:10;;;;;;;5.03;1.45;;;;;;;;;;4557656;28;20040;-58
2022/02/22 12:12:21;;;;;;;3.53;1.27;;;;;;;;;;4557516;28;20094;-58
2022/02/22 12:14:32;;;;;;;4.43;1.45;;;;;;;;;;4557722;28;20029;-60
2022/02/22 12:16:44;;;;;;;5.27;1.53;;;;;;;;;;4560014;28;20194;-60
2022/02/22 12:18:57;;;;;;;3.63;1.20;;;;;;;;;;4559847;28;20039;-59
2022/02/22 12:21:07;;;;;;;4.28;1.65;;;;;;;;;;4561684;28;20043;-60
2022/02/22 12:23:20;;;;;;;3.47;1.13;;;;;;;;;;4557697;28;24986;-59
2022/02/22 12:25:31;;;;;;;4.47;1.60;;;;;;;;;;4560424;28;20041;-59
2022/02/22 12:27:45;;;;;;;4.05;1.42;;;;;;;;;;4559996;28;20028;-59
2022/02/22 12:29:56;;;;;;;5.60;1.73;;;;;;;;;;4558970;28;20518;-60
2022/02/22 12:32:07;;;;;;;3.27;1.33;;;;;;;;;;4557915;28;20025;-60
2022/02/22 12:34:19;;;;;;;4.65;1.30;;;;;;;;;;4560900;28;20258;-59
2022/02/22 12:36:29;;;;;;;6.13;1.77;;;;;;;;;;4555396;28;20123;-59
2022/02/22 12:38:40;;;;;;;4.47;1.50;;;;;;;;;;4558656;28;20041;-59
2022/02/22 12:40:51;;;;;;;4.63;1.50;;;;;;;;;;4542623;28;20041;-59
2022/02/22 12:43:06;;;;;;;5.80;1.60;;;;;;;;;;4558121;28;20032;-59
2022/02/22 12:45:17;;;;;;;4.45;1.40;;;;;;;;;;4555614;28;20566;-60
2022/02/22 12:47:28;;;;;;;5.18;1.58;;;;;;;;;;4558265;28;20032;-59
2022/02/22 12:49:38;;;;;;;4.53;1.70;;;;;;;;;;4558069;28;20477;-59
2022/02/22 12:51:49;;;;;;;4.37;1.50;;;;;;;;;;4557421;28;20033;-59
2022/02/22 12:54:03;;;;;;;5.07;1.50;;;;;;;;;;4553198;28;20036;-60
2022/02/22 12:56:13;;;;;;;4.15;1.50;;;;;;;;;;4558878;28;20038;-59
2022/02/22 12:58:31;;;;;;;5.03;1.77;;;;;;;;;;4558341;28;20043;-59
2022/02/22 13:00:42;;;;;;;6.53;1.83;;;;;;;;;;4545663;28;20080;-60
2022/02/22 13:02:52;;;;;;;4.23;1.40;;;;;;;;;;4556906;28;20029;-59
2022/02/22 13:05:03;;;;;;;5.07;1.77;;;;;;;;;;4544021;28;20111;-59
2022/02/22 13:07:15;;;;;;;6.35;1.52;;;;;;;;;;4558641;28;20120;-59
2022/02/22 13:09:27;;;;;;;5.43;1.80;;;;;;;;;;4557704;28;20056;-59